createdAt,value
2018-03-07T00:00:56.559Z,10.32
2018-03-07T00:03:24.061Z,9.20
2018-03-07T00:05:51.609Z,10.00
2018-03-07T00:08:19.116Z,9.40
2018-03-07T00:10:46.595Z,9.02
2018-03-07T00:13:14.096Z,9.23
2018-03-07T00:15:41.600Z,9.32
2018-03-07T00:18:09.112Z,9.40
2018-03-07T00:20:36.600Z,8.98
2018-03-07T00:23:04.079Z,9.25
2018-03-07T00:25:31.572Z,9.32
2018-03-07T00:27:59.081Z,9.05
2018-03-07T00:30:26.573Z,9.30
2018-03-07T00:32:54.080Z,9.70
2018-03-07T00:35:21.584Z,9.45
2018-03-07T00:37:49.083Z,9.43
2018-03-07T00:40:16.614Z,9.38
2018-03-07T00:42:46.430Z,9.40
2018-03-07T00:45:13.924Z,9.60
2018-03-07T00:47:41.413Z,10.13
2018-03-07T00:50:08.907Z,10.52
2018-03-07T00:52:36.410Z,10.40
2018-03-07T00:55:03.991Z,8.80
2018-03-07T00:57:31.465Z,9.23
2018-03-07T00:59:58.975Z,8.90
2018-03-07T01:02:26.539Z,8.57
2018-03-07T01:04:54.040Z,8.30
2018-03-07T01:07:21.523Z,8.80
2018-03-07T01:09:49.007Z,8.73
2018-03-07T01:12:16.525Z,8.30
2018-03-07T01:14:44.012Z,7.47
2018-03-07T01:17:11.542Z,7.95
2018-03-07T01:19:39.036Z,8.20
2018-03-07T01:22:06.504Z,9.07
2018-03-07T01:24:33.991Z,9.30
2018-03-07T01:27:01.505Z,8.27
2018-03-07T01:29:29.016Z,8.70
2018-03-07T01:31:56.495Z,8.52
2018-03-07T01:34:23.976Z,8.18
2018-03-07T01:36:51.481Z,8.18
2018-03-07T01:39:18.987Z,8.05
2018-03-07T01:41:46.485Z,7.57
2018-03-07T01:44:13.983Z,7.32
2018-03-07T01:46:41.497Z,6.90
2018-03-07T01:49:08.980Z,7.00
2018-03-07T01:51:48.216Z,7.40
2018-03-07T01:54:15.733Z,6.97
2018-03-07T01:56:43.233Z,7.00
2018-03-07T01:59:10.702Z,7.68
2018-03-07T02:01:38.203Z,7.10
2018-03-07T02:04:05.687Z,6.95
2018-03-07T02:06:33.209Z,7.37
2018-03-07T02:09:00.685Z,7.30
2018-03-07T02:11:28.176Z,7.00
2018-03-07T02:13:55.656Z,6.75
2018-03-07T02:16:23.135Z,7.07
2018-03-07T02:18:50.633Z,7.10
2018-03-07T02:21:18.126Z,6.78
2018-03-07T02:23:45.614Z,6.70
2018-03-07T02:26:13.123Z,7.45
2018-03-07T02:28:40.626Z,6.97
2018-03-07T02:31:08.105Z,7.28
2018-03-07T02:33:35.588Z,6.70
2018-03-07T02:36:03.134Z,6.62
2018-03-07T02:38:30.609Z,7.00
2018-03-07T02:40:58.131Z,8.40
2018-03-07T02:43:25.693Z,7.25
2018-03-07T02:45:53.191Z,7.37
2018-03-07T02:48:20.753Z,7.30
2018-03-07T02:50:48.248Z,7.47
2018-03-07T02:53:15.725Z,8.13
2018-03-07T02:55:43.225Z,7.93
2018-03-07T02:58:10.708Z,8.25
2018-03-07T03:00:38.219Z,7.75
2018-03-07T03:03:05.724Z,7.93
2018-03-07T03:05:33.250Z,7.22
2018-03-07T03:08:00.758Z,7.70
2018-03-07T03:10:28.264Z,7.68
2018-03-07T03:12:55.905Z,7.75
2018-03-07T03:15:23.396Z,7.80
2018-03-07T03:17:50.868Z,7.03
2018-03-07T03:20:18.380Z,8.05
2018-03-07T03:22:45.964Z,7.95
2018-03-07T03:25:13.489Z,7.37
2018-03-07T03:27:40.975Z,7.20
2018-03-07T03:30:08.499Z,8.10
2018-03-07T03:32:36.008Z,7.95
2018-03-07T03:35:03.536Z,7.80
2018-03-07T03:37:31.053Z,7.85
2018-03-07T03:39:58.577Z,8.25
2018-03-07T03:42:26.055Z,7.93
2018-03-07T03:44:53.790Z,8.00
2018-03-07T03:47:21.283Z,8.73
2018-03-07T03:49:48.803Z,7.72
2018-03-07T03:52:16.352Z,8.23
2018-03-07T03:54:43.867Z,7.90
2018-03-07T03:57:11.375Z,7.50
2018-03-07T03:59:38.946Z,7.35
2018-03-07T04:02:06.431Z,6.90
2018-03-07T04:04:34.847Z,6.40
2018-03-07T04:07:02.332Z,6.25
2018-03-07T04:09:29.824Z,5.75
2018-03-07T04:11:57.334Z,5.65
2018-03-07T04:14:24.825Z,5.20
2018-03-07T04:16:52.303Z,5.82
2018-03-07T04:19:19.775Z,5.25
2018-03-07T04:21:47.274Z,5.35
2018-03-07T04:24:14.756Z,4.85
2018-03-07T04:26:42.247Z,4.82
2018-03-07T04:29:09.755Z,4.90
2018-03-07T04:31:37.235Z,5.50
2018-03-07T04:34:04.731Z,5.18
2018-03-07T04:36:32.224Z,4.85
2018-03-07T04:38:59.692Z,5.07
2018-03-07T04:41:27.174Z,4.55
2018-03-07T04:43:54.657Z,5.07
2018-03-07T04:46:22.109Z,4.75
2018-03-07T04:48:49.651Z,4.60
2018-03-07T04:51:17.127Z,4.97
2018-03-07T04:53:44.612Z,4.60
2018-03-07T04:56:12.084Z,5.28
2018-03-07T04:58:39.558Z,4.60
2018-03-07T05:01:07.044Z,4.50
2018-03-07T05:03:34.517Z,4.15
2018-03-07T05:08:24.083Z,4.07
2018-03-07T05:10:51.588Z,4.32
2018-03-07T05:13:19.076Z,3.60
2018-03-07T05:15:46.580Z,4.15
2018-03-07T05:18:14.077Z,3.90
2018-03-07T05:20:41.616Z,3.90
2018-03-07T05:23:09.175Z,3.83
2018-03-07T05:25:36.676Z,4.00
2018-03-07T05:28:04.200Z,4.18
2018-03-07T05:30:31.684Z,4.05
2018-03-07T05:32:59.191Z,4.60
2018-03-07T05:35:26.695Z,3.72
2018-03-07T05:37:54.203Z,4.15
2018-03-07T05:40:21.708Z,4.00
2018-03-07T05:42:49.207Z,4.40
2018-03-07T05:45:16.707Z,3.65
2018-03-07T05:47:44.211Z,3.72
2018-03-07T05:50:11.716Z,5.00
2018-03-07T05:52:39.208Z,5.95
2018-03-07T05:55:06.691Z,9.95
2018-03-07T05:57:34.204Z,17.58
2018-03-07T06:00:01.693Z,20.85
2018-03-07T06:02:29.199Z,19.65
2018-03-07T06:04:56.712Z,20.37
2018-03-07T06:07:24.247Z,15.18
2018-03-07T06:09:51.869Z,14.13
2018-03-07T06:12:19.367Z,9.70
2018-03-07T06:14:46.893Z,5.22
2018-03-07T06:17:14.387Z,5.07
2018-03-07T06:19:41.882Z,4.95
2018-03-07T06:22:09.359Z,4.12
2018-03-07T06:24:36.854Z,3.97
2018-03-07T06:27:04.334Z,4.68
2018-03-07T06:29:31.778Z,4.60
2018-03-07T06:31:59.291Z,4.85
2018-03-07T06:34:26.803Z,5.07
2018-03-07T06:36:54.287Z,5.00
2018-03-07T06:39:21.773Z,4.80
2018-03-07T06:41:49.260Z,5.18
2018-03-07T06:44:16.906Z,4.70
2018-03-07T06:46:44.389Z,5.07
2018-03-07T06:49:11.883Z,4.80
2018-03-07T06:51:39.392Z,4.10
2018-03-07T06:54:06.862Z,4.72
2018-03-07T06:56:34.348Z,4.15
2018-03-07T06:59:01.853Z,9.68
2018-03-07T07:01:29.352Z,5.47
2018-03-07T07:03:56.827Z,5.07
2018-03-07T07:06:24.325Z,5.25
2018-03-07T07:08:51.828Z,5.53
2018-03-07T07:11:19.385Z,4.90
2018-03-07T07:13:49.257Z,4.90
2018-03-07T07:16:16.746Z,5.22
2018-03-07T07:18:44.251Z,5.32
2018-03-07T07:21:11.746Z,4.75
2018-03-07T07:23:39.248Z,5.12
2018-03-07T07:26:06.762Z,5.37
2018-03-07T07:28:34.244Z,4.70
2018-03-07T07:31:01.720Z,4.35
2018-03-07T07:33:29.213Z,4.30
2018-03-07T07:35:56.706Z,4.15
2018-03-07T07:38:24.243Z,4.43
2018-03-07T07:40:51.814Z,4.53
2018-03-07T07:43:19.397Z,4.68
2018-03-07T07:45:46.857Z,4.60
2018-03-07T07:48:14.340Z,5.22
2018-03-07T07:50:41.854Z,5.95
2018-03-07T07:53:09.372Z,7.03
2018-03-07T07:55:36.940Z,6.85
2018-03-07T07:58:04.423Z,7.10
2018-03-07T08:00:31.909Z,7.03
2018-03-07T08:02:59.454Z,7.82
2018-03-07T08:05:26.955Z,7.07
2018-03-07T08:10:28.480Z,7.57
2018-03-07T08:12:55.960Z,6.20
2018-03-07T08:15:23.439Z,5.85
2018-03-07T08:17:50.915Z,5.05
2018-03-07T08:20:18.483Z,4.12
2018-03-07T08:22:45.956Z,3.15
2018-03-07T08:25:13.457Z,2.85
2018-03-07T08:27:40.983Z,2.83
2018-03-07T08:30:08.459Z,2.28
2018-03-07T08:32:35.948Z,2.45
2018-03-07T08:35:03.532Z,2.12
2018-03-07T08:37:31.038Z,2.28
2018-03-07T08:39:58.547Z,2.10
2018-03-07T08:42:26.904Z,1.92
2018-03-07T08:44:54.557Z,6.37
2018-03-07T08:47:22.099Z,6.97
2018-03-07T08:49:49.594Z,5.20
2018-03-07T08:52:17.080Z,5.90
2018-03-07T08:54:44.600Z,6.97
2018-03-07T08:57:12.102Z,5.95
2018-03-07T08:59:39.600Z,6.00
2018-03-07T09:02:07.074Z,1.67
2018-03-07T09:04:34.645Z,1.35
2018-03-07T09:07:02.244Z,1.45
2018-03-07T09:09:29.813Z,0.90
2018-03-07T09:11:57.419Z,1.40
2018-03-07T09:14:24.913Z,1.23
2018-03-07T09:16:52.395Z,1.42
2018-03-07T09:19:19.888Z,1.55
2018-03-07T09:21:47.361Z,1.20
2018-03-07T09:24:14.864Z,1.08
2018-03-07T09:26:42.360Z,1.33
2018-03-07T09:29:09.850Z,1.23
2018-03-07T09:31:37.335Z,1.73
2018-03-07T09:34:04.864Z,0.80
2018-03-07T09:36:32.353Z,1.60
2018-03-07T09:38:59.868Z,1.90
2018-03-07T09:41:27.376Z,1.50
2018-03-07T09:43:54.853Z,1.17
2018-03-07T09:46:22.327Z,1.10
2018-03-07T09:48:49.847Z,1.77
2018-03-07T09:51:17.325Z,1.33
2018-03-07T09:53:44.839Z,1.62
2018-03-07T09:56:13.490Z,1.55
2018-03-07T09:58:40.940Z,1.45
2018-03-07T10:01:08.473Z,1.12
2018-03-07T10:03:35.998Z,1.45
2018-03-07T10:06:03.491Z,1.65
2018-03-07T10:08:31.035Z,2.08
2018-03-07T10:10:58.620Z,1.75
2018-03-07T10:13:26.115Z,1.40
2018-03-07T10:15:53.987Z,1.70
2018-03-07T10:18:21.611Z,2.00
2018-03-07T10:20:49.141Z,1.73
2018-03-07T10:23:16.646Z,1.85
2018-03-07T10:25:44.179Z,1.62
2018-03-07T10:28:11.690Z,1.45
2018-03-07T10:30:39.200Z,2.12
2018-03-07T10:33:12.268Z,0.75
2018-03-07T10:35:39.913Z,1.17
2018-03-07T10:38:07.445Z,0.73
2018-03-07T10:40:35.030Z,1.23
2018-03-07T10:43:02.589Z,1.10
2018-03-07T10:45:30.173Z,1.50
2018-03-07T10:47:57.694Z,1.15
2018-03-07T10:50:25.546Z,1.65
2018-03-07T10:52:53.079Z,1.58
2018-03-07T10:55:20.604Z,0.82
2018-03-07T10:57:48.208Z,1.45
2018-03-07T11:00:21.367Z,1.20
2018-03-07T11:02:48.864Z,0.85
2018-03-07T11:05:17.041Z,1.08
2018-03-07T11:07:44.539Z,1.42
2018-03-07T11:10:12.099Z,0.70
2018-03-07T11:12:39.604Z,1.02
2018-03-07T11:15:07.239Z,1.20
2018-03-07T11:17:34.748Z,1.10
2018-03-07T11:20:02.249Z,1.33
2018-03-07T11:22:29.834Z,0.90
2018-03-07T11:24:57.360Z,0.77
2018-03-07T11:27:24.934Z,0.80
2018-03-07T11:29:52.423Z,1.62
2018-03-07T11:32:19.984Z,1.08
2018-03-07T11:34:47.544Z,1.08
2018-03-07T11:37:15.039Z,0.77
2018-03-07T11:39:42.597Z,1.27
2018-03-07T11:42:10.185Z,1.50
2018-03-07T11:44:37.713Z,1.10
2018-03-07T11:47:05.252Z,1.05
2018-03-07T11:49:32.817Z,1.17
2018-03-07T11:52:00.328Z,1.27
2018-03-07T11:54:27.884Z,0.98
2018-03-07T11:56:55.404Z,0.88
2018-03-07T11:59:23.801Z,0.82
2018-03-07T12:01:51.308Z,1.25
2018-03-07T12:04:18.927Z,1.27
2018-03-07T12:06:46.512Z,1.70
2018-03-07T12:09:14.041Z,1.80
2018-03-07T12:11:41.529Z,1.33
2018-03-07T12:14:09.024Z,1.55
2018-03-07T12:16:38.636Z,1.87
2018-03-07T12:19:06.326Z,1.48
2018-03-07T12:21:33.903Z,1.73
2018-03-07T12:24:01.416Z,1.85
2018-03-07T12:26:28.943Z,1.60
2018-03-07T12:28:56.471Z,1.35
2018-03-07T12:31:23.985Z,1.52
2018-03-07T12:33:51.493Z,1.50
2018-03-07T12:36:18.976Z,1.50
2018-03-07T12:38:46.624Z,2.72
2018-03-07T12:41:14.127Z,1.05
2018-03-07T12:43:41.630Z,1.35
2018-03-07T12:46:09.166Z,1.15
2018-03-07T12:48:36.756Z,1.12
2018-03-07T12:51:04.428Z,1.00
2018-03-07T12:53:32.854Z,0.57
2018-03-07T12:56:00.834Z,1.15
2018-03-07T12:58:28.384Z,1.58
2018-03-07T13:00:56.036Z,1.35
2018-03-07T13:03:26.071Z,0.93
2018-03-07T13:05:53.606Z,1.40
2018-03-07T13:08:21.116Z,1.00
2018-03-07T13:10:48.626Z,0.93
2018-03-07T13:13:16.131Z,1.50
2018-03-07T13:15:43.817Z,1.10
2018-03-07T13:18:11.368Z,0.77
2018-03-07T13:20:39.013Z,0.40
2018-03-07T13:23:06.525Z,1.02
2018-03-07T13:25:34.086Z,0.52
2018-03-07T13:28:01.637Z,1.17
2018-03-07T13:30:29.136Z,1.05
2018-03-07T13:32:56.729Z,0.82
2018-03-07T13:35:24.477Z,0.60
2018-03-07T13:37:52.051Z,0.82
2018-03-07T13:40:19.577Z,1.02
2018-03-07T13:42:47.072Z,0.88
2018-03-07T13:45:14.668Z,1.85
2018-03-07T13:47:42.220Z,1.65
2018-03-07T13:50:09.717Z,1.15
2018-03-07T13:52:37.206Z,0.75
2018-03-07T13:55:04.735Z,0.90
2018-03-07T13:57:32.260Z,0.88
2018-03-07T13:59:59.780Z,0.80
2018-03-07T14:02:27.294Z,0.50
2018-03-07T14:04:54.807Z,1.10
2018-03-07T14:07:23.239Z,0.82
2018-03-07T14:10:10.925Z,0.80
2018-03-07T14:12:38.454Z,1.08
2018-03-07T14:15:06.024Z,1.40
2018-03-07T14:17:33.726Z,1.37
2018-03-07T14:20:01.250Z,1.12
2018-03-07T14:22:28.895Z,2.03
2018-03-07T14:24:56.388Z,1.80
2018-03-07T14:27:23.920Z,1.23
2018-03-07T14:29:51.449Z,1.17
2018-03-07T14:32:18.947Z,1.27
2018-03-07T14:34:46.488Z,1.25
2018-03-07T14:37:14.047Z,1.02
2018-03-07T14:39:41.556Z,1.30
2018-03-07T14:42:09.135Z,0.98
2018-03-07T14:44:36.658Z,0.40
2018-03-07T14:47:04.208Z,1.00
2018-03-07T14:49:32.780Z,0.60
2018-03-07T14:52:00.296Z,0.70
2018-03-07T14:54:27.788Z,1.10
2018-03-07T14:56:55.287Z,0.82
2018-03-07T14:59:23.036Z,0.62
2018-03-07T15:01:50.585Z,0.93
2018-03-07T15:04:18.170Z,0.90
2018-03-07T15:06:45.746Z,1.95
2018-03-07T15:09:13.263Z,1.05
2018-03-07T15:11:40.836Z,1.55
2018-03-07T15:14:08.383Z,1.05
2018-03-07T15:16:35.884Z,1.33
2018-03-07T15:19:03.452Z,1.60
2018-03-07T15:21:30.997Z,1.50
2018-03-07T15:23:58.524Z,1.10
2018-03-07T15:26:26.046Z,1.13
2018-03-07T15:28:53.689Z,1.17
2018-03-07T15:31:21.268Z,0.87
2018-03-07T15:33:48.837Z,1.30
2018-03-07T15:36:16.387Z,0.97
2018-03-07T15:38:43.887Z,0.80
2018-03-07T15:41:11.428Z,0.80
2018-03-07T15:43:38.993Z,1.10
2018-03-07T15:46:06.478Z,0.73
2018-03-07T15:48:34.034Z,1.23
2018-03-07T15:51:01.612Z,1.00
2018-03-07T15:53:29.119Z,1.10
2018-03-07T15:55:56.680Z,1.27
2018-03-07T15:58:24.280Z,2.10
2018-03-07T16:00:51.786Z,1.80
2018-03-07T16:03:19.291Z,1.30
2018-03-07T16:05:46.863Z,2.20
2018-03-07T16:08:14.365Z,1.53
2018-03-07T16:10:41.929Z,1.93
2018-03-07T16:13:09.422Z,1.80
2018-03-07T16:15:36.912Z,1.43
2018-03-07T16:18:04.471Z,2.05
2018-03-07T16:20:32.051Z,1.50
2018-03-07T16:22:59.849Z,1.48
2018-03-07T16:25:27.377Z,1.40
2018-03-07T16:27:54.908Z,1.43
2018-03-07T16:30:22.420Z,1.50
2018-03-07T16:32:49.992Z,1.70
2018-03-07T16:35:17.516Z,1.37
2018-03-07T16:37:45.027Z,1.40
2018-03-07T16:40:14.182Z,1.33
2018-03-07T16:42:41.681Z,1.40
2018-03-07T16:45:09.295Z,1.33
2018-03-07T16:47:36.783Z,1.53
2018-03-07T16:50:04.295Z,2.30
2018-03-07T16:52:31.840Z,1.60
2018-03-07T16:54:59.416Z,1.00
2018-03-07T16:57:26.899Z,1.57
2018-03-07T16:59:54.400Z,1.23
2018-03-07T17:02:21.898Z,1.57
2018-03-07T17:04:49.454Z,1.60
2018-03-07T17:07:16.967Z,1.10
2018-03-07T17:09:44.560Z,1.30
2018-03-07T17:12:12.156Z,1.03
2018-03-07T17:14:39.681Z,1.27
2018-03-07T17:17:07.192Z,1.73
2018-03-07T17:19:34.724Z,1.70
2018-03-07T17:22:02.246Z,1.70
2018-03-07T17:24:29.740Z,1.60
2018-03-07T17:26:57.324Z,1.77
2018-03-07T17:29:24.905Z,1.73
2018-03-07T17:31:52.438Z,1.77
2018-03-07T17:34:21.078Z,4.80
2018-03-07T17:36:48.653Z,20.23
2018-03-07T17:39:16.203Z,9.05
2018-03-07T17:41:43.704Z,13.05
2018-03-07T17:44:11.974Z,3.08
2018-03-07T17:46:39.489Z,7.28
2018-03-07T17:49:07.015Z,3.05
2018-03-07T17:51:34.562Z,2.97
2018-03-07T17:54:02.106Z,2.35
2018-03-07T17:56:29.679Z,1.62
2018-03-07T17:58:57.170Z,1.10
2018-03-07T18:01:24.659Z,1.27
2018-03-07T18:03:52.161Z,1.65
2018-03-07T18:06:19.673Z,1.50
2018-03-07T18:08:47.179Z,1.87
2018-03-07T18:11:14.667Z,1.80
2018-03-07T18:13:42.175Z,1.87
2018-03-07T18:16:09.655Z,2.35
2018-03-07T18:18:37.156Z,2.55
2018-03-07T18:21:04.681Z,2.70
2018-03-07T18:23:32.174Z,3.20
2018-03-07T18:25:59.664Z,2.28
2018-03-07T18:28:27.166Z,2.10
2018-03-07T18:30:54.679Z,1.92
2018-03-07T18:33:22.175Z,2.00
2018-03-07T18:35:49.668Z,2.70
2018-03-07T18:38:17.162Z,2.75
2018-03-07T18:40:44.643Z,1.23
2018-03-07T18:43:12.136Z,1.50
2018-03-07T18:45:39.622Z,1.48
2018-03-07T18:48:07.108Z,1.33
2018-03-07T18:50:34.706Z,1.25
2018-03-07T18:53:02.228Z,1.30
2018-03-07T18:55:29.723Z,1.83
2018-03-07T18:57:57.191Z,2.15
2018-03-07T19:00:24.703Z,2.95
2018-03-07T19:02:52.187Z,2.60
2018-03-07T19:05:19.663Z,2.47
2018-03-07T19:07:47.140Z,2.55
2018-03-07T19:10:14.619Z,2.28
2018-03-07T19:12:42.118Z,2.60
2018-03-07T19:15:09.593Z,3.87
2018-03-07T19:17:37.138Z,3.30
2018-03-07T19:20:04.616Z,2.58
2018-03-07T19:22:32.111Z,2.97
2018-03-07T19:24:59.607Z,1.60
2018-03-07T19:27:27.087Z,1.50
2018-03-07T19:29:55.087Z,3.20
2018-03-07T19:32:22.591Z,3.35
2018-03-07T19:34:50.071Z,2.95
2018-03-07T19:37:17.583Z,3.45
2018-03-07T19:39:45.073Z,3.70
2018-03-07T19:42:12.543Z,3.00
2018-03-07T19:44:40.052Z,3.65
2018-03-07T19:47:07.555Z,3.40
2018-03-07T19:49:35.048Z,3.15
2018-03-07T19:52:02.540Z,2.10
2018-03-07T19:54:30.027Z,1.40
2018-03-07T19:56:57.546Z,2.30
2018-03-07T19:59:25.215Z,3.08
2018-03-07T20:01:52.706Z,3.62
2018-03-07T20:04:20.223Z,3.10
2018-03-07T20:06:47.761Z,2.28
2018-03-07T20:09:15.250Z,3.12
2018-03-07T20:11:42.758Z,1.83
2018-03-07T20:14:10.263Z,1.80
2018-03-07T20:16:37.891Z,2.28
2018-03-07T20:19:05.363Z,1.77
2018-03-07T20:21:32.846Z,2.00
2018-03-07T20:24:00.396Z,1.40
2018-03-07T20:26:27.893Z,1.90
2018-03-07T20:28:55.379Z,1.50
2018-03-07T20:31:22.856Z,2.10
2018-03-07T20:33:50.328Z,1.62
2018-03-07T20:36:17.811Z,2.00
2018-03-07T20:38:45.351Z,2.40
2018-03-07T20:41:12.830Z,2.58
2018-03-07T20:43:40.299Z,2.40
2018-03-07T20:46:07.787Z,2.28
2018-03-07T20:48:35.299Z,2.10
2018-03-07T20:51:02.787Z,2.05
2018-03-07T20:53:30.302Z,2.30
2018-03-07T20:55:57.788Z,2.40
2018-03-07T20:58:25.263Z,2.17
2018-03-07T21:00:52.762Z,2.20
2018-03-07T21:03:20.259Z,2.50
2018-03-07T21:05:47.803Z,3.03
2018-03-07T21:08:15.315Z,2.47
2018-03-07T21:10:42.783Z,2.80
2018-03-07T21:13:10.291Z,2.90
2018-03-07T21:15:37.775Z,2.80
2018-03-07T21:18:05.248Z,2.40
2018-03-07T21:20:32.753Z,2.28
2018-03-07T21:23:00.324Z,2.00
2018-03-07T21:25:28.072Z,2.05
2018-03-07T21:27:55.551Z,1.73
2018-03-07T21:30:23.049Z,1.62
2018-03-07T21:32:50.535Z,1.90
2018-03-07T21:35:18.023Z,1.90
2018-03-07T21:37:45.503Z,1.62
2018-03-07T21:40:12.986Z,1.70
2018-03-07T21:42:40.460Z,1.37
2018-03-07T21:45:07.964Z,1.75
2018-03-07T21:47:35.491Z,1.73
2018-03-07T21:50:03.062Z,1.58
2018-03-07T21:52:30.698Z,1.25
2018-03-07T21:54:58.266Z,1.17
2018-03-07T21:57:25.770Z,1.45
2018-03-07T21:59:53.245Z,1.55
2018-03-07T22:02:20.723Z,1.10
2018-03-07T22:04:48.194Z,1.40
2018-03-07T22:07:15.719Z,1.30
2018-03-07T22:09:43.207Z,1.35
2018-03-07T22:12:10.694Z,1.12
2018-03-07T22:14:38.216Z,1.40
2018-03-07T22:17:05.683Z,1.08
2018-03-07T22:19:33.171Z,1.20
2018-03-07T22:22:00.687Z,1.12
2018-03-07T22:24:28.183Z,1.00
2018-03-07T22:26:55.659Z,1.20
2018-03-07T22:29:23.130Z,1.20
2018-03-07T22:31:50.611Z,1.52
2018-03-07T22:34:18.091Z,1.30
2018-03-07T22:36:45.570Z,1.30
2018-03-07T22:39:13.060Z,1.60
2018-03-07T22:41:40.546Z,1.83
2018-03-07T22:44:08.017Z,1.45
2018-03-07T22:46:35.508Z,1.20
2018-03-07T22:49:02.987Z,3.10
2018-03-07T22:51:30.498Z,2.22
2018-03-07T22:53:57.987Z,2.15
2018-03-07T22:56:25.512Z,2.30
2018-03-07T22:58:52.996Z,1.62
2018-03-07T23:01:20.482Z,1.30
2018-03-07T23:03:47.969Z,1.45
2018-03-07T23:06:15.553Z,1.30
2018-03-07T23:08:43.035Z,1.30
2018-03-07T23:11:10.529Z,1.48
2018-03-07T23:13:38.015Z,1.92
2018-03-07T23:16:05.520Z,0.95
2018-03-07T23:18:32.991Z,1.00
2018-03-07T23:21:00.516Z,1.00
2018-03-07T23:23:28.015Z,1.30
2018-03-07T23:25:55.499Z,1.12
2018-03-07T23:28:23.003Z,1.10
2018-03-07T23:30:50.487Z,0.60
2018-03-07T23:33:18.000Z,0.90
2018-03-07T23:35:45.466Z,1.02
2018-03-07T23:38:12.932Z,0.90
2018-03-07T23:40:40.410Z,1.30
2018-03-07T23:43:07.934Z,1.08
2018-03-07T23:45:35.435Z,1.33
2018-03-07T23:48:02.906Z,1.70
2018-03-07T23:50:30.380Z,1.10
2018-03-07T23:52:57.864Z,1.33
2018-03-07T23:55:25.334Z,1.17
2018-03-07T23:57:52.827Z,1.17
